KGDV

Dawson Community Airport

Glendive, Montana, USA
METAR KGDV 121756Z AUTO 19008KT 10SM -RA OVC050 01/M01 A2954 RMK AO2 SLP027 P0001 60001 T00111006 10033 21022 50015 FZRANO
Observed Flight Rules
Dec-12 @ 17:56 UTC (an hour ago) Visual Flight Rules
Wind Visibility Clouds Conditions
190° at 8 knots 10 miles
  • Overcast at 5,000' AGL
  • Light Rain
Temperatures Readings Precipitation
Current 1°C / 34°F
Dewpoint -1°C / 30°F
Humidity 87%
Altimeter 29.54" Hg
Pressure 1002.7 hPa
Elevation 749
Current Rain 0.01
METAR KGDV 121756Z AUTO 19008KT 10SM -RA OVC050 01/M01 A2954 RMK AO2 SLP027 P0001 60001 T00111006 10033 21022 50015 FZRANO
Observed Flight Rules
Dec-12 @ 17:56 UTC
(an hour ago)
VFR
Wind Visibility
190° at 8 knots 10 miles
Clouds
  • Overcast at 5,000' AGL
Conditions
  • Light Rain
Temperature Dewpoint
1°C / 34°F -1°C / 30°F
Humidity Altimeter Pressure
87% 29.54" Hg 1002.7 hPa
Current Rain
0.01